createdAt,value
2017-10-01T00:01:28.207Z,9.47
2017-10-01T00:03:58.729Z,10.20
2017-10-01T00:06:29.086Z,12.40
2017-10-01T00:08:59.554Z,12.23
2017-10-01T00:11:30.768Z,7.83
2017-10-01T00:14:01.374Z,9.10
2017-10-01T00:16:31.639Z,10.63
2017-10-01T00:19:02.111Z,10.40
2017-10-01T00:21:32.798Z,9.53
2017-10-01T00:24:03.930Z,9.87
2017-10-01T00:26:34.475Z,10.97
2017-10-01T00:29:05.731Z,8.37
2017-10-01T00:31:35.924Z,9.73
2017-10-01T00:34:10.473Z,6.37
2017-10-01T00:36:40.769Z,6.30
2017-10-01T00:39:11.601Z,5.90
2017-10-01T00:41:42.265Z,5.13
2017-10-01T00:44:14.383Z,4.43
2017-10-01T00:46:44.617Z,4.40
2017-10-01T00:49:14.811Z,6.40
2017-10-01T00:51:47.393Z,7.17
2017-10-01T00:54:18.102Z,7.00
2017-10-01T00:56:48.447Z,8.13
2017-10-01T00:59:19.013Z,5.60
2017-10-01T01:01:49.852Z,7.20
2017-10-01T01:04:20.473Z,6.20
2017-10-01T01:06:52.141Z,5.60
2017-10-01T01:09:22.504Z,4.30
2017-10-01T01:11:52.955Z,7.47
2017-10-01T01:14:23.802Z,6.20
2017-10-01T01:16:54.182Z,5.00
2017-10-01T01:19:24.629Z,4.90
2017-10-01T01:21:54.833Z,4.30
2017-10-01T01:24:25.778Z,4.57
2017-10-01T01:26:57.075Z,3.33
2017-10-01T01:29:27.341Z,6.17
2017-10-01T01:31:58.862Z,4.30
2017-10-01T01:34:29.964Z,3.70
2017-10-01T01:37:01.454Z,4.07
2017-10-01T01:39:31.997Z,4.60
2017-10-01T01:42:02.824Z,4.97
2017-10-01T01:44:34.045Z,3.77
2017-10-01T01:47:04.538Z,4.63
2017-10-01T01:49:35.244Z,5.83
2017-10-01T01:52:06.024Z,4.70
2017-10-01T01:54:37.632Z,5.13
2017-10-01T01:57:09.567Z,5.80
2017-10-01T01:59:40.410Z,4.90
2017-10-01T02:02:10.967Z,3.07
2017-10-01T02:04:41.870Z,5.47
2017-10-01T02:07:12.279Z,4.13
2017-10-01T02:09:45.337Z,3.43
2017-10-01T02:12:15.862Z,3.93
2017-10-01T02:14:47.089Z,5.63
2017-10-01T02:17:18.122Z,5.00
2017-10-01T02:19:48.942Z,5.63
2017-10-01T02:22:19.412Z,4.70
2017-10-01T02:24:50.619Z,4.80
2017-10-01T02:27:21.149Z,4.60
2017-10-01T02:29:52.561Z,4.67
2017-10-01T02:32:23.883Z,7.73
2017-10-01T02:34:54.646Z,5.77
2017-10-01T02:37:26.198Z,4.93
2017-10-01T02:39:56.957Z,4.43
2017-10-01T02:42:31.299Z,5.73
2017-10-01T02:45:02.009Z,5.53
2017-10-01T02:47:33.815Z,9.13
2017-10-01T02:50:04.919Z,5.43
2017-10-01T02:52:36.778Z,10.57
2017-10-01T02:55:08.292Z,10.30
2017-10-01T02:57:38.964Z,11.57
2017-10-01T03:00:12.856Z,16.27
2017-10-01T03:02:44.202Z,17.30
2017-10-01T03:05:15.182Z,21.43
2017-10-01T03:07:46.466Z,21.13
2017-10-01T03:10:18.492Z,18.23
2017-10-01T03:12:49.205Z,21.73
2017-10-01T03:15:20.498Z,25.53
2017-10-01T03:17:51.440Z,25.13
2017-10-01T03:20:22.690Z,25.97
2017-10-01T03:22:54.682Z,27.37
2017-10-01T03:25:27.380Z,25.57
2017-10-01T03:27:58.063Z,14.37
2017-10-01T03:30:29.120Z,22.63
2017-10-01T03:33:00.073Z,26.83
2017-10-01T03:35:31.074Z,28.17
2017-10-01T03:38:02.155Z,21.50
2017-10-01T03:40:33.922Z,25.60
2017-10-01T03:43:04.711Z,27.67
2017-10-01T03:45:35.492Z,26.13
2017-10-01T03:48:06.564Z,25.90
2017-10-01T03:50:37.740Z,28.83
2017-10-01T03:53:09.078Z,27.73
2017-10-01T03:55:40.634Z,27.33
2017-10-01T03:58:11.456Z,21.77
2017-10-01T04:00:46.452Z,21.10
2017-10-01T04:03:16.933Z,27.10
2017-10-01T04:05:48.565Z,24.73
2017-10-01T04:08:19.196Z,22.77
2017-10-01T04:10:50.376Z,24.83
2017-10-01T04:13:21.348Z,23.70
2017-10-01T04:15:51.789Z,20.17
2017-10-01T04:18:22.524Z,25.10
2017-10-01T04:20:54.454Z,16.80
2017-10-01T04:23:25.149Z,17.03
2017-10-01T04:25:56.049Z,22.00
2017-10-01T04:28:27.412Z,27.40
2017-10-01T04:30:58.205Z,26.23
2017-10-01T04:33:30.030Z,28.60
2017-10-01T04:36:00.712Z,24.87
2017-10-01T04:38:31.863Z,21.07
2017-10-01T04:41:03.667Z,24.83
2017-10-01T04:43:33.991Z,15.27
2017-10-01T04:46:04.331Z,20.70
2017-10-01T04:48:34.704Z,20.60
2017-10-01T04:51:05.642Z,16.60
2017-10-01T04:53:36.496Z,16.50
2017-10-01T04:56:07.258Z,21.87
2017-10-01T04:58:38.651Z,13.07
2017-10-01T05:01:09.507Z,12.17
2017-10-01T05:03:40.126Z,23.17
2017-10-01T05:06:10.468Z,27.60
2017-10-01T05:08:40.767Z,23.50
2017-10-01T05:11:12.421Z,12.53
2017-10-01T05:13:42.968Z,18.70
2017-10-01T05:16:13.533Z,20.00
2017-10-01T05:18:43.926Z,22.67
2017-10-01T05:21:14.761Z,19.60
2017-10-01T05:23:45.413Z,20.93
2017-10-01T05:26:18.005Z,22.37
2017-10-01T05:28:49.054Z,18.00
2017-10-01T05:31:20.175Z,15.53
2017-10-01T05:33:53.102Z,17.60
2017-10-01T05:36:24.009Z,15.47
2017-10-01T05:38:54.774Z,17.53
2017-10-01T05:41:26.423Z,17.40
2017-10-01T05:43:57.224Z,14.20
2017-10-01T05:46:28.722Z,13.47
2017-10-01T05:48:59.627Z,15.17
2017-10-01T05:51:31.065Z,18.70
2017-10-01T05:54:02.848Z,19.57
2017-10-01T05:56:33.752Z,12.57
2017-10-01T05:59:04.900Z,17.73
2017-10-01T06:01:36.921Z,16.70
2017-10-01T06:04:09.057Z,13.10
2017-10-01T06:06:39.404Z,14.00
2017-10-01T06:09:09.763Z,14.07
2017-10-01T06:11:41.047Z,17.87
2017-10-01T06:14:12.406Z,13.20
2017-10-01T06:16:43.416Z,16.03
2017-10-01T06:19:14.322Z,17.30
2017-10-01T06:21:45.352Z,14.27
2017-10-01T06:24:18.386Z,17.40
2017-10-01T06:26:50.030Z,16.83
2017-10-01T06:29:21.279Z,17.87
2017-10-01T06:31:52.555Z,18.80
2017-10-01T06:34:23.824Z,16.80
2017-10-01T06:36:56.157Z,17.77
2017-10-01T06:39:27.354Z,16.77
2017-10-01T06:42:00.694Z,18.37
2017-10-01T06:44:32.766Z,18.67
2017-10-01T06:49:46.748Z,19.27
2017-10-01T06:52:18.558Z,18.07
2017-10-01T06:54:54.416Z,17.67
2017-10-01T06:57:25.264Z,20.03
2017-10-01T07:00:00.115Z,18.83
2017-10-01T07:02:37.359Z,18.00
2017-10-01T07:05:10.496Z,18.37
2017-10-01T07:07:43.462Z,17.43
2017-10-01T07:10:22.040Z,20.03
2017-10-01T07:13:09.292Z,18.80
2017-10-01T07:15:49.570Z,21.17
2017-10-01T07:18:24.230Z,18.97
2017-10-01T07:26:40.601Z,19.80
2017-10-01T07:29:26.949Z,20.40
2017-10-01T07:32:09.008Z,21.27
2017-10-01T07:35:02.230Z,21.37
2017-10-01T07:37:41.728Z,22.30
2017-10-01T07:40:26.119Z,22.30
2017-10-01T07:46:11.169Z,24.67
2017-10-01T07:51:47.367Z,23.77
2017-10-01T07:54:30.902Z,21.60
2017-10-01T07:57:06.138Z,23.43
2017-10-01T08:08:13.979Z,21.93
2017-10-01T08:17:06.376Z,22.20
2017-10-01T08:31:07.299Z,20.00
2017-10-01T08:33:51.642Z,15.63
2017-10-01T08:45:06.983Z,15.03
2017-10-01T08:47:59.791Z,14.43
2017-10-01T08:57:21.905Z,12.80
2017-10-01T09:03:02.567Z,13.30
2017-10-01T09:08:41.487Z,10.73
2017-10-01T09:25:52.387Z,9.03
2017-10-01T09:34:21.939Z,7.57
2017-10-01T10:03:04.630Z,5.40
2017-10-01T10:08:50.378Z,5.70
2017-10-01T10:17:29.183Z,4.80
2017-10-01T10:58:39.407Z,5.07
2017-10-01T11:01:46.362Z,5.20
2017-10-01T11:04:24.167Z,4.93
2017-10-01T11:06:55.314Z,4.37
2017-10-01T11:09:26.853Z,4.30
2017-10-01T11:11:57.449Z,5.07
2017-10-01T11:14:27.844Z,4.77
2017-10-01T11:16:58.052Z,4.60
2017-10-01T11:19:29.450Z,4.70
2017-10-01T11:22:00.691Z,3.70
2017-10-01T11:24:30.911Z,3.90
2017-10-01T11:27:01.154Z,3.40
2017-10-01T11:29:31.495Z,3.57
2017-10-01T11:32:02.858Z,3.90
2017-10-01T11:34:33.898Z,3.50
2017-10-01T11:37:04.271Z,3.00
2017-10-01T11:39:34.742Z,4.10
2017-10-01T11:42:06.372Z,3.77
2017-10-01T11:44:37.104Z,3.40
2017-10-01T11:47:07.427Z,3.30
2017-10-01T11:49:37.963Z,2.90
2017-10-01T11:52:08.425Z,3.07
2017-10-01T11:54:40.583Z,2.77
2017-10-01T11:57:12.394Z,2.70
2017-10-01T11:59:43.226Z,3.00
2017-10-01T12:02:14.810Z,2.83
2017-10-01T12:04:46.777Z,2.90
2017-10-01T12:07:17.194Z,2.63
2017-10-01T12:09:48.393Z,2.90
2017-10-01T12:12:19.871Z,3.10
2017-10-01T12:14:50.350Z,3.30
2017-10-01T12:17:20.769Z,4.10
2017-10-01T12:19:52.226Z,3.80
2017-10-01T12:22:22.600Z,2.77
2017-10-01T12:24:53.014Z,3.60
2017-10-01T12:27:23.374Z,4.03
2017-10-01T12:29:53.653Z,3.93
2017-10-01T12:32:24.568Z,3.87
2017-10-01T12:34:55.148Z,3.40
2017-10-01T12:37:25.429Z,3.60
2017-10-01T12:39:55.740Z,3.97
2017-10-01T12:42:25.972Z,3.20
2017-10-01T12:44:56.424Z,3.20
2017-10-01T12:47:27.247Z,4.00
2017-10-01T12:49:57.774Z,3.23
2017-10-01T12:52:28.124Z,2.50
2017-10-01T12:55:00.061Z,3.23
2017-10-01T12:57:30.739Z,3.17
2017-10-01T13:00:03.798Z,2.97
2017-10-01T13:02:35.384Z,3.37
2017-10-01T13:05:06.202Z,3.00
2017-10-01T13:07:36.799Z,3.57
2017-10-01T13:10:07.340Z,2.73
2017-10-01T13:12:37.723Z,3.07
2017-10-01T13:15:09.003Z,2.50
2017-10-01T13:17:39.782Z,3.40
2017-10-01T13:20:10.199Z,3.40
2017-10-01T13:22:40.596Z,2.40
2017-10-01T13:25:12.850Z,2.90
2017-10-01T13:27:45.310Z,2.57
2017-10-01T13:30:17.449Z,2.83
2017-10-01T13:32:50.225Z,2.77
2017-10-01T13:35:21.952Z,2.80
2017-10-01T13:37:52.280Z,3.03
2017-10-01T13:40:23.578Z,2.67
2017-10-01T13:42:55.596Z,2.93
2017-10-01T13:45:27.982Z,3.00
2017-10-01T13:47:59.552Z,2.57
2017-10-01T13:50:31.074Z,2.57
2017-10-01T13:53:02.549Z,3.13
2017-10-01T13:55:33.345Z,2.43
2017-10-01T13:58:03.624Z,3.50
2017-10-01T14:00:34.754Z,2.90
2017-10-01T14:03:05.872Z,2.80
2017-10-01T14:05:42.367Z,3.50
2017-10-01T14:08:12.852Z,3.13
2017-10-01T14:10:43.826Z,3.10
2017-10-01T14:13:15.909Z,3.27
2017-10-01T14:15:47.457Z,2.77
2017-10-01T14:18:17.961Z,3.30
2017-10-01T14:20:48.202Z,3.23
2017-10-01T14:23:19.831Z,2.70
2017-10-01T14:25:50.811Z,3.07
2017-10-01T14:28:26.798Z,3.10
2017-10-01T14:31:01.506Z,3.10
2017-10-01T14:33:34.492Z,3.40
2017-10-01T14:36:06.757Z,3.30
2017-10-01T14:38:39.185Z,3.20
2017-10-01T14:41:09.783Z,3.57
2017-10-01T14:43:40.632Z,3.23
2017-10-01T14:46:10.869Z,3.50
2017-10-01T14:48:41.345Z,3.03
2017-10-01T14:51:14.038Z,3.13
2017-10-01T14:53:44.282Z,3.77
2017-10-01T14:56:14.567Z,3.57
2017-10-01T14:58:45.595Z,3.20
2017-10-01T15:01:16.724Z,3.47
2017-10-01T15:03:52.224Z,2.90
2017-10-01T15:06:22.456Z,2.83
2017-10-01T15:08:53.320Z,3.00
2017-10-01T15:11:23.503Z,3.50
2017-10-01T15:13:55.067Z,3.23
2017-10-01T15:16:29.095Z,3.03
2017-10-01T15:19:01.575Z,2.60
2017-10-01T15:21:35.620Z,2.80
2017-10-01T15:24:06.754Z,2.90
2017-10-01T15:26:39.863Z,3.10
2017-10-01T15:29:17.317Z,3.20
2017-10-01T15:31:47.561Z,2.70
2017-10-01T15:34:18.549Z,2.90
2017-10-01T15:36:48.796Z,2.67
2017-10-01T15:39:19.270Z,2.60
2017-10-01T15:41:51.248Z,2.50
2017-10-01T15:44:23.597Z,2.40
2017-10-01T15:46:57.435Z,2.60
2017-10-01T15:49:30.483Z,2.77
2017-10-01T15:52:01.204Z,2.63
2017-10-01T15:54:34.434Z,2.87
2017-10-01T15:57:07.675Z,2.63
2017-10-01T15:59:49.874Z,2.60
2017-10-01T16:02:22.264Z,2.67
2017-10-01T16:04:53.370Z,2.37
2017-10-01T16:07:23.879Z,2.80
2017-10-01T16:09:56.220Z,2.73
2017-10-01T16:12:31.854Z,2.60
2017-10-01T16:15:02.328Z,3.03
2017-10-01T16:17:36.356Z,2.40
2017-10-01T16:20:10.704Z,3.10
2017-10-01T16:22:45.523Z,3.20
2017-10-01T16:25:17.659Z,2.70
2017-10-01T16:27:52.314Z,3.10
2017-10-01T16:30:29.261Z,3.20
2017-10-01T16:38:41.995Z,2.93
2017-10-01T16:41:14.106Z,3.20
2017-10-01T16:44:11.028Z,3.07
2017-10-01T16:46:41.208Z,3.40
2017-10-01T16:49:16.072Z,2.90
2017-10-01T16:51:52.390Z,3.03
2017-10-01T16:54:32.507Z,2.87
2017-10-01T16:57:16.228Z,3.03
2017-10-01T16:59:52.900Z,3.33
2017-10-01T17:07:03.897Z,3.03
2017-10-01T17:09:38.215Z,3.17
2017-10-01T17:12:25.490Z,3.40
2017-10-01T17:15:07.745Z,2.83
2017-10-01T17:17:43.732Z,3.07
2017-10-01T17:20:26.133Z,3.60
2017-10-01T17:23:09.237Z,2.90
2017-10-01T17:28:38.506Z,3.10
2017-10-01T17:31:19.461Z,3.50
2017-10-01T17:34:10.998Z,2.97
2017-10-01T17:36:57.146Z,3.07
2017-10-01T17:39:36.194Z,3.53
2017-10-01T17:48:33.305Z,2.90
2017-10-01T18:00:30.534Z,2.80
2017-10-01T18:03:15.160Z,3.37
2017-10-01T18:08:58.113Z,3.10
2017-10-01T18:14:17.430Z,3.13
2017-10-01T18:16:53.498Z,2.93
2017-10-01T18:28:49.160Z,3.20
2017-10-01T18:31:33.733Z,2.97
2017-10-01T18:42:49.196Z,4.57
2017-10-01T18:45:53.476Z,2.90
2017-10-01T18:48:34.843Z,3.50
2017-10-01T18:51:20.237Z,3.50
2017-10-01T18:54:08.466Z,3.40
2017-10-01T18:56:59.963Z,3.30
2017-10-01T18:59:37.577Z,3.70
2017-10-01T19:05:11.494Z,4.50
2017-10-01T19:08:08.301Z,4.47
2017-10-01T19:10:46.902Z,3.90
2017-10-01T19:13:35.514Z,3.80
2017-10-01T19:16:27.581Z,4.57
2017-10-01T19:21:57.291Z,4.40
2017-10-01T19:24:28.691Z,3.63
2017-10-01T19:27:06.508Z,4.63
2017-10-01T19:29:37.449Z,4.40
2017-10-01T19:32:08.991Z,4.27
2017-10-01T19:34:39.556Z,4.10
2017-10-01T19:37:11.285Z,3.60
2017-10-01T19:39:41.554Z,3.50
2017-10-01T19:42:12.087Z,3.80
2017-10-01T19:44:44.116Z,3.37
2017-10-01T19:47:14.433Z,3.50
2017-10-01T19:49:45.236Z,3.60
